createdAt,value
2023-01-11T00:00:57.077Z,100288.25
2023-01-11T00:05:59.333Z,100281.97
2023-01-11T00:11:02.536Z,100284.44
2023-01-11T00:16:08.339Z,100282.03
2023-01-11T00:21:10.850Z,100270.66
2023-01-11T00:26:13.586Z,100264.59
2023-01-11T00:31:16.207Z,100249.47
2023-01-11T00:36:18.157Z,100267.16
2023-01-11T00:41:39.600Z,100256.63
2023-01-11T00:47:00.010Z,100243.31
2023-01-11T00:52:02.302Z,100237.91
2023-01-11T00:57:04.785Z,100236.19
2023-01-11T01:02:06.811Z,100220.44
2023-01-11T01:07:09.014Z,100229.03
2023-01-11T01:12:11.108Z,100230.72
2023-01-11T01:17:13.049Z,100232.78
2023-01-11T01:22:14.939Z,100230.72
2023-01-11T01:27:18.084Z,100224.66
2023-01-11T01:32:20.096Z,100223.72
2023-01-11T01:37:21.914Z,100220.22
2023-01-11T01:42:24.587Z,100218.56
2023-01-11T01:47:32.615Z,100226.38
2023-01-11T01:52:35.559Z,100225.66
2023-01-11T01:57:41.101Z,100225.53
2023-01-11T02:02:44.749Z,100219.44
2023-01-11T02:07:47.498Z,100200.78
2023-01-11T02:12:56.119Z,100198.25
2023-01-11T02:17:57.999Z,100212.28
2023-01-11T02:23:24.706Z,100208.31
2023-01-11T02:28:41.839Z,100211.75
2023-01-11T02:34:05.364Z,100200.19
2023-01-11T02:39:34.075Z,100202.00
2023-01-11T02:45:02.420Z,100183.00
2023-01-11T02:50:13.976Z,100178.72
2023-01-11T02:55:19.900Z,100180.47
2023-01-11T03:00:22.977Z,100177.72
2023-01-11T03:05:24.698Z,100173.50
2023-01-11T03:10:50.230Z,100169.84
2023-01-11T03:16:11.162Z,100166.31
2023-01-11T03:21:57.361Z,100168.13
2023-01-11T03:27:12.299Z,100154.94
2023-01-11T03:32:45.815Z,100154.94
2023-01-11T03:38:13.216Z,100135.53
2023-01-11T03:43:19.670Z,100150.66
2023-01-11T03:48:31.025Z,100139.16
2023-01-11T03:53:37.131Z,100147.78
2023-01-11T03:58:39.197Z,100142.72
2023-01-11T04:03:41.001Z,100150.53
2023-01-11T04:08:42.899Z,100147.09
2023-01-11T04:13:44.903Z,100138.81
2023-01-11T04:18:46.784Z,100151.38
2023-01-11T04:23:49.156Z,100143.25
2023-01-11T04:28:54.021Z,100144.44
2023-01-11T04:33:56.143Z,100143.25
2023-01-11T04:38:58.774Z,100161.91
2023-01-11T04:44:00.597Z,100159.31
2023-01-11T04:49:03.015Z,100146.06
2023-01-11T04:54:04.987Z,100154.81
2023-01-11T04:59:06.923Z,100152.06
2023-01-11T05:04:08.867Z,100150.53
2023-01-11T05:09:17.999Z,100140.78
2023-01-11T05:14:19.947Z,100130.88
2023-01-11T05:19:21.886Z,100130.88
2023-01-11T05:24:23.784Z,100140.59
2023-01-11T05:29:25.654Z,100157.44
2023-01-11T05:34:27.556Z,100166.97
2023-01-11T05:39:29.727Z,100168.06
2023-01-11T05:44:50.279Z,100161.81
2023-01-11T05:49:52.184Z,100160.94
2023-01-11T05:54:54.157Z,100170.53
2023-01-11T05:59:56.584Z,100161.97
2023-01-11T06:04:58.511Z,100170.72
2023-01-11T06:10:00.419Z,100187.31
2023-01-11T06:15:02.326Z,100198.00
2023-01-11T06:20:04.610Z,100185.66
2023-01-11T06:25:06.808Z,100212.03
2023-01-11T06:30:09.445Z,100220.13
2023-01-11T06:35:11.313Z,100228.06
2023-01-11T06:40:13.627Z,100238.53
2023-01-11T06:45:15.635Z,100229.03
2023-01-11T06:50:17.657Z,100247.50
2023-01-11T06:55:19.843Z,100249.22
2023-01-11T07:00:22.179Z,100239.63
2023-01-11T07:05:24.430Z,100237.91
2023-01-11T07:10:26.466Z,100234.16
2023-01-11T07:15:28.848Z,100229.72
2023-01-11T07:20:31.217Z,100232.38
2023-01-11T07:25:33.368Z,100279.31
2023-01-11T07:30:55.420Z,100282.81
2023-01-11T07:36:00.918Z,100284.44
2023-01-11T07:41:22.893Z,100302.63
2023-01-11T07:46:24.899Z,100304.81
2023-01-11T07:51:26.842Z,100319.88
2023-01-11T07:56:29.631Z,100324.16
2023-01-11T08:01:31.600Z,100326.88
2023-01-11T08:06:33.590Z,100338.31
2023-01-11T08:11:54.232Z,100332.47
2023-01-11T08:16:56.207Z,100368.03
2023-01-11T08:21:58.227Z,100377.47
2023-01-11T08:27:00.482Z,100399.53
2023-01-11T08:32:02.593Z,100411.00
2023-01-11T08:37:05.680Z,100404.13
2023-01-11T08:42:07.847Z,100425.91
2023-01-11T08:47:09.695Z,100412.50
2023-01-11T08:52:14.433Z,100450.13
2023-01-11T08:57:16.483Z,100458.72
2023-01-11T09:02:18.321Z,100433.69
2023-01-11T09:07:20.176Z,100454.00
2023-01-11T09:12:22.178Z,100460.22
2023-01-11T09:17:23.997Z,100478.84
2023-01-11T09:22:26.168Z,100482.38
2023-01-11T09:27:28.455Z,100502.72
2023-01-11T09:32:30.387Z,100506.25
2023-01-11T09:37:32.365Z,100517.41
2023-01-11T09:42:40.039Z,100523.34
2023-01-11T09:48:17.594Z,100539.69
2023-01-11T09:53:31.769Z,100542.28
2023-01-11T09:59:33.656Z,100563.63
2023-01-11T10:04:53.874Z,100561.75
2023-01-11T10:18:22.775Z,100574.00
2023-01-11T10:21:55.487Z,100577.72
2023-01-11T10:27:00.183Z,100582.13
2023-01-11T10:32:03.053Z,100575.97
2023-01-11T10:37:51.613Z,100578.47
2023-01-11T10:43:13.325Z,100576.66
2023-01-11T10:48:24.631Z,100571.56
2023-01-11T10:53:37.527Z,100582.19
2023-01-11T10:59:04.261Z,100580.25
2023-01-11T11:04:24.312Z,100584.63
2023-01-11T11:09:32.440Z,100593.50
2023-01-11T11:15:23.971Z,100586.56
2023-01-11T11:20:31.728Z,100593.50
2023-01-11T11:25:42.538Z,100581.25
2023-01-11T11:30:47.651Z,100584.72
2023-01-11T11:36:00.076Z,100592.72
2023-01-11T11:41:09.430Z,100591.88
2023-01-11T11:46:18.757Z,100588.28
2023-01-11T11:51:23.253Z,100590.88
2023-01-11T11:56:31.132Z,100594.38
2023-01-11T12:01:36.047Z,100594.38
2023-01-11T12:06:38.502Z,100590.00
2023-01-11T12:11:42.419Z,100583.81
2023-01-11T12:16:47.677Z,100601.47
2023-01-11T12:21:51.156Z,100590.13
2023-01-11T12:26:55.961Z,100585.69
2023-01-11T12:32:26.261Z,100584.91
2023-01-11T12:38:00.442Z,100588.50
2023-01-11T12:43:11.558Z,100596.84
2023-01-11T12:48:43.712Z,100597.88
2023-01-11T12:54:27.589Z,100602.59
2023-01-11T13:00:01.656Z,100603.31
2023-01-11T13:05:23.795Z,100610.91
2023-01-11T13:11:03.379Z,100595.00
2023-01-11T13:16:18.113Z,100603.75
2023-01-11T13:21:28.725Z,100599.22
2023-01-11T13:26:50.655Z,100602.66
2023-01-11T13:31:54.648Z,100602.75
2023-01-11T13:37:02.908Z,100604.47
2023-01-11T13:42:13.391Z,100607.97
2023-01-11T13:47:37.058Z,100609.72
2023-01-11T13:53:14.572Z,100620.53
2023-01-11T13:58:29.326Z,100618.44
2023-01-11T14:04:08.524Z,100623.81
2023-01-11T14:09:10.583Z,100637.00
2023-01-11T14:14:34.954Z,100633.28
2023-01-11T14:19:48.042Z,100633.28
2023-01-11T14:24:59.929Z,100641.25
2023-01-11T14:30:25.692Z,100649.84
2023-01-11T14:36:02.011Z,100652.41
2023-01-11T14:41:46.799Z,100647.75
2023-01-11T14:47:12.742Z,100634.94
2023-01-11T14:52:34.591Z,100637.59
2023-01-11T14:57:43.311Z,100646.91
2023-01-11T15:03:05.027Z,100647.84
2023-01-11T15:08:15.758Z,100654.00
2023-01-11T15:13:26.074Z,100645.09
2023-01-11T15:18:28.346Z,100647.69
2023-01-11T15:23:38.533Z,100657.50
2023-01-11T15:28:52.901Z,100664.97
2023-01-11T15:33:55.914Z,100660.09
2023-01-11T15:39:03.737Z,100656.00
2023-01-11T15:44:16.489Z,100672.50
2023-01-11T15:50:06.489Z,100667.84
2023-01-11T15:55:17.737Z,100671.44
2023-01-11T16:00:38.133Z,100693.78
2023-01-11T16:05:51.047Z,100691.06
2023-01-11T16:11:02.442Z,100696.44
2023-01-11T16:16:29.511Z,100717.06
2023-01-11T16:21:35.086Z,100716.00
2023-01-11T16:26:41.277Z,100727.47
2023-01-11T16:32:05.021Z,100748.69
2023-01-11T16:37:40.283Z,100745.09
2023-01-11T16:42:54.853Z,100762.19
2023-01-11T16:48:08.203Z,100769.09
2023-01-11T16:53:14.981Z,100758.75
2023-01-11T16:58:19.488Z,100766.44
2023-01-11T17:03:24.602Z,100756.75
2023-01-11T17:08:36.933Z,100758.78
2023-01-11T17:13:57.450Z,100752.91
2023-01-11T17:19:07.031Z,100760.91
2023-01-11T17:24:13.027Z,100760.75
2023-01-11T17:29:33.089Z,100761.88
2023-01-11T17:34:38.214Z,100765.06
2023-01-11T17:39:49.342Z,100764.00
2023-01-11T17:45:12.011Z,100747.91
2023-01-11T17:50:39.767Z,100747.28
2023-01-11T17:55:53.297Z,100757.28
2023-01-11T18:01:20.643Z,100759.66
2023-01-11T18:06:45.235Z,100768.31
2023-01-11T18:11:47.526Z,100763.22
2023-01-11T18:17:03.296Z,100759.28
2023-01-11T18:22:27.896Z,100754.75
2023-01-11T18:27:35.769Z,100745.13
2023-01-11T18:32:41.999Z,100751.50
2023-01-11T18:37:43.798Z,100742.41
2023-01-11T18:42:53.450Z,100744.13
2023-01-11T18:47:55.423Z,100742.34
2023-01-11T18:52:58.271Z,100730.78
2023-01-11T18:58:00.197Z,100737.88
2023-01-11T19:03:03.832Z,100733.31
2023-01-11T19:08:06.079Z,100725.47
2023-01-11T19:13:08.104Z,100721.66
2023-01-11T19:18:10.088Z,100716.72
2023-01-11T19:23:12.441Z,100694.84
2023-01-11T19:28:14.231Z,100698.50
2023-01-11T19:33:16.072Z,100676.59
2023-01-11T19:38:19.621Z,100691.66
2023-01-11T19:43:21.616Z,100691.81
2023-01-11T19:48:24.189Z,100674.13
2023-01-11T19:53:26.156Z,100670.38
2023-01-11T19:58:28.574Z,100661.91
2023-01-11T20:03:30.548Z,100653.81
2023-01-11T20:08:33.579Z,100644.59
2023-01-11T20:13:35.734Z,100628.53
2023-01-11T20:18:37.892Z,100636.41
2023-01-11T20:23:39.779Z,100641.81
2023-01-11T20:28:50.207Z,100648.78
2023-01-11T20:33:53.148Z,100642.81
2023-01-11T20:38:56.670Z,100646.47
2023-01-11T20:43:59.363Z,100633.00
2023-01-11T20:49:01.686Z,100628.25
2023-01-11T20:54:05.181Z,100603.88
2023-01-11T20:59:08.376Z,100603.56
2023-01-11T21:04:11.975Z,100613.63
2023-01-11T21:09:17.355Z,100619.97
2023-01-11T21:14:19.719Z,100612.63
2023-01-11T21:19:21.997Z,100610.81
2023-01-11T21:24:23.997Z,100607.72
2023-01-11T21:29:26.174Z,100611.75
2023-01-11T21:34:28.823Z,100610.22
2023-01-11T21:39:30.777Z,100609.50
2023-01-11T21:44:34.405Z,100613.03
2023-01-11T21:49:36.323Z,100608.03
2023-01-11T21:54:38.437Z,100593.66
2023-01-11T21:59:40.657Z,100588.38
2023-01-11T22:04:42.637Z,100597.41
2023-01-11T22:09:59.849Z,100589.44
2023-01-11T22:15:06.397Z,100594.50
2023-01-11T22:20:08.950Z,100583.53
2023-01-11T22:25:10.869Z,100569.13
2023-01-11T22:30:12.928Z,100578.06
2023-01-11T22:35:14.829Z,100571.13
2023-01-11T22:40:16.767Z,100582.66
2023-01-11T22:45:18.653Z,100596.94
2023-01-11T22:50:20.580Z,100608.88
2023-01-11T22:55:23.055Z,100570.16
2023-01-11T23:00:24.971Z,100593.97
2023-01-11T23:05:27.474Z,100574.59
2023-01-11T23:10:29.410Z,100603.94
2023-01-11T23:15:31.395Z,100610.03
2023-01-11T23:20:36.081Z,100591.63
2023-01-11T23:25:37.834Z,100588.97
2023-01-11T23:30:40.036Z,100617.28
2023-01-11T23:35:42.017Z,100618.84
2023-01-11T23:41:02.435Z,100623.28
2023-01-11T23:46:24.852Z,100629.53
2023-01-11T23:51:26.728Z,100615.25
2023-01-11T23:56:29.213Z,100613.75
